Time;durP1;ratioP1;P1;durP2;ratioP2;P2;SDS_P1;SDS_P2;PMS_P1;PMS_P2;Temp;Humidity;BMP_temperature;BMP_pressure;BME280_temperature;BME280_humidity;BME280_pressure;Samples;Min_cycle;Max_cycle;Signal;HPM_P1;HPM_P2
2021/12/29 00:02:18;;;;;;;65.77;34.00;;;3.60;99.90;;;;;;10289122;28;20324;-83
2021/12/29 00:07:21;;;;;;;58.50;32.27;;;4.10;94.60;;;;;;10271732;28;20233;-83
2021/12/29 00:12:26;;;;;;;62.17;32.53;;;4.00;99.90;;;;;;10270499;28;20339;-83
2021/12/29 00:17:28;;;;;;;62.23;32.77;;;3.80;99.90;;;;;;10269572;28;20284;-82
2021/12/29 00:22:31;;;;;;;55.57;30.53;;;2.60;99.90;;;;;;10288097;28;20261;-82
2021/12/29 00:27:33;;;;;;;66.83;33.53;;;3.20;99.90;;;;;;10270870;28;20637;-83
2021/12/29 00:32:36;;;;;;;55.87;29.07;;;2.80;99.90;;;;;;10254693;28;20268;-83
2021/12/29 00:38:16;;;;;;;65.53;33.80;;;3.20;99.90;;;;;;10268065;28;20299;-83
2021/12/29 00:43:55;;;;;;;71.80;36.03;;;1.70;99.90;;;;;;10276034;28;20315;-82
2021/12/29 00:49:32;;;;;;;73.10;35.00;;;0.90;99.90;;;;;;10296542;28;20240;-82
2021/12/29 00:54:36;;;;;;;63.87;33.73;;;0.20;99.90;;;;;;10286896;28;20630;-82
2021/12/29 00:59:38;;;;;;;68.23;35.17;;;1.00;99.90;;;;;;10269211;28;20650;-82
2021/12/29 01:04:41;;;;;;;65.43;33.07;;;1.40;99.90;;;;;;10286675;28;20249;-82
2021/12/29 01:09:44;;;;;;;62.60;33.27;;;1.10;99.90;;;;;;10287304;28;20648;-82
2021/12/29 01:14:53;;;;;;;64.33;34.67;;;0.60;99.90;;;;;;10245204;29;20726;-82
2021/12/29 01:19:56;;;;;;;67.43;33.97;;;0.60;99.90;;;;;;10285119;28;20751;-82
2021/12/29 01:24:59;;;;;;;54.80;29.43;;;0.90;99.90;;;;;;10285583;28;20261;-83
2021/12/29 01:30:08;;;;;;;66.63;35.43;;;2.90;99.90;;;;;;10269753;28;20244;-83
2021/12/29 01:35:12;;;;;;;69.70;35.70;;;1.80;99.90;;;;;;10286660;28;20290;-83
2021/12/29 01:40:18;;;;;;;61.00;33.60;;;3.10;99.90;;;;;;10286834;28;20247;-82
2021/12/29 01:45:21;;;;;;;61.93;33.50;;;1.70;99.90;;;;;;10268863;28;20316;-82
2021/12/29 01:50:24;;;;;;;66.93;36.33;;;2.00;99.90;;;;;;10285682;28;20299;-83
2021/12/29 01:55:27;;;;;;;59.50;32.27;;;0.70;99.90;;;;;;10237051;29;20240;-83
2021/12/29 02:00:33;;;;;;;60.53;33.37;;;0.40;99.90;;;;;;10258138;28;20674;-82
2021/12/29 02:05:37;;;;;;;68.17;35.17;;;0.90;99.90;;;;;;10294035;28;20671;-82
2021/12/29 02:10:43;;;;;;;61.70;34.20;;;-0.10;99.90;;;;;;10263079;28;20750;-83
2021/12/29 02:15:46;;;;;;;69.47;35.20;;;-0.10;99.90;;;;;;10275994;28;20231;-83
2021/12/29 02:20:53;;;;;;;68.10;35.87;;;0.00;99.90;;;;;;10293605;28;20561;-82
2021/12/29 02:25:57;;;;;;;66.93;34.10;;;0.00;99.90;;;;;;10292166;28;20282;-82
2021/12/29 02:31:00;;;;;;;77.13;37.53;;;0.60;99.90;;;;;;10265209;28;20250;-82
2021/12/29 02:36:04;;;;;;;161.83;75.20;;;0.50;99.90;;;;;;10253075;28;20217;-82
2021/12/29 02:41:08;;;;;;;85.57;41.13;;;0.10;99.90;;;;;;10292621;28;20244;-82
2021/12/29 02:46:12;;;;;;;79.23;40.10;;;0.10;99.90;;;;;;10275055;28;20267;-83
2021/12/29 02:51:15;;;;;;;56.43;29.20;;;-0.20;99.90;;;;;;10274332;28;20240;-82
2021/12/29 02:56:17;;;;;;;67.63;33.53;;;1.00;99.90;;;;;;10274368;28;20633;-82
2021/12/29 03:01:21;;;;;;;75.47;35.63;;;0.30;99.90;;;;;;10290750;28;20251;-82
2021/12/29 03:06:24;;;;;;;66.33;33.77;;;0.70;99.90;;;;;;10290465;28;20265;-82
2021/12/29 03:11:27;;;;;;;77.97;39.70;;;0.40;99.90;;;;;;10291665;28;20297;-82
2021/12/29 03:16:32;;;;;;;68.43;36.30;;;0.20;99.90;;;;;;10290207;28;20291;-82
2021/12/29 03:21:35;;;;;;;82.30;39.83;;;0.30;99.90;;;;;;10291009;28;20246;-83
2021/12/29 03:26:39;;;;;;;71.20;37.47;;;0.00;99.90;;;;;;10290308;28;20299;-83
2021/12/29 03:31:43;;;;;;;73.83;36.87;;;0.20;99.90;;;;;;10273506;28;20286;-82
2021/12/29 03:36:46;;;;;;;80.07;41.23;;;0.10;99.90;;;;;;10290120;28;20302;-82
2021/12/29 03:41:48;;;;;;;72.83;38.23;;;0.10;99.90;;;;;;10272418;28;20252;-82
2021/12/29 03:46:51;;;;;;;64.70;35.20;;;0.00;99.90;;;;;;10289173;28;20317;-82
2021/12/29 03:51:53;;;;;;;76.60;40.53;;;0.00;99.90;;;;;;10289497;28;20433;-82
2021/12/29 03:57:01;;;;;;;73.87;38.03;;;-0.30;99.90;;;;;;10289120;28;20285;-82
2021/12/29 04:02:03;;;;;;;74.03;38.90;;;-0.20;99.90;;;;;;10288592;28;20245;-82
2021/12/29 04:07:06;;;;;;;76.33;40.70;;;-0.30;99.90;;;;;;10289259;28;20746;-83
2021/12/29 04:12:09;;;;;;;77.80;39.20;;;0.40;99.90;;;;;;10289063;28;20271;-82
2021/12/29 04:17:13;;;;;;;75.03;38.97;;;1.00;99.90;;;;;;10287583;28;20279;-83
2021/12/29 04:22:15;;;;;;;75.70;39.07;;;0.90;99.90;;;;;;10270918;28;20208;-82
2021/12/29 04:27:19;;;;;;;77.97;39.90;;;0.50;99.90;;;;;;10270628;28;20268;-82
2021/12/29 04:32:21;;;;;;;80.80;39.97;;;0.10;99.90;;;;;;10270988;28;20843;-82
2021/12/29 04:37:24;;;;;;;76.07;39.47;;;0.30;99.90;;;;;;10252476;28;20706;-82
2021/12/29 04:42:26;;;;;;;73.77;37.90;;;0.10;99.90;;;;;;10303919;28;20783;-82
2021/12/29 04:47:30;;;;;;;82.07;39.70;;;0.40;99.90;;;;;;10303798;28;20285;-82
2021/12/29 04:52:32;;;;;;;75.77;39.40;;;0.10;99.90;;;;;;10288256;28;20638;-82
2021/12/29 04:57:35;;;;;;;73.60;38.27;;;0.00;99.90;;;;;;10303871;28;20239;-82
2021/12/29 05:02:37;;;;;;;73.53;39.47;;;0.00;99.90;;;;;;10306806;28;20289;-82
2021/12/29 05:13:01;;;;;;;80.83;40.10;;;0.50;99.90;;;;;;10304465;28;20263;-82
2021/12/29 05:18:04;;;;;;;80.73;39.17;;;0.00;99.90;;;;;;10286802;28;20237;-82
2021/12/29 05:23:06;;;;;;;89.30;41.73;;;0.10;99.90;;;;;;10303831;28;20273;-82
2021/12/29 05:28:09;;;;;;;75.87;39.53;;;0.10;99.90;;;;;;10294630;28;20656;-83
2021/12/29 05:33:12;;;;;;;82.87;42.23;;;0.20;99.90;;;;;;10292946;28;20776;-82
2021/12/29 05:38:14;;;;;;;76.33;37.73;;;0.70;99.90;;;;;;10311467;28;20231;-83
2021/12/29 05:43:17;;;;;;;78.77;39.63;;;0.40;99.90;;;;;;10294367;28;20233;-83
2021/12/29 05:48:19;;;;;;;80.60;42.50;;;0.70;99.90;;;;;;10278751;28;20684;-82
2021/12/29 05:53:22;;;;;;;83.73;42.07;;;0.10;99.90;;;;;;10311873;28;20227;-82
2021/12/29 05:58:25;;;;;;;88.90;43.83;;;0.10;99.90;;;;;;10312768;28;20296;-82
2021/12/29 06:03:28;;;;;;;81.67;42.63;;;-0.10;99.90;;;;;;10309896;28;20699;-82
2021/12/29 06:08:30;;;;;;;88.03;41.00;;;-0.20;99.90;;;;;;10311565;28;20234;-82
2021/12/29 06:13:33;;;;;;;89.00;43.87;;;-0.20;99.90;;;;;;10306587;28;20708;-82
2021/12/29 06:18:35;;;;;;;87.40;42.50;;;-0.20;99.90;;;;;;10324452;28;20314;-82
2021/12/29 06:23:37;;;;;;;87.77;43.30;;;-0.20;99.90;;;;;;10292880;28;20262;-82
2021/12/29 06:28:40;;;;;;;85.00;43.33;;;-0.20;99.90;;;;;;10292470;28;20239;-82
2021/12/29 06:33:45;;;;;;;99.33;46.47;;;-0.20;99.90;;;;;;10275249;28;20311;-82
2021/12/29 06:38:48;;;;;;;84.40;42.80;;;-0.20;99.90;;;;;;10292266;28;20296;-82
2021/12/29 06:43:50;;;;;;;91.90;44.70;;;-0.10;99.90;;;;;;10291794;28;20660;-82
2021/12/29 06:48:52;;;;;;;84.57;45.30;;;-0.10;99.90;;;;;;10274944;28;20306;-83
2021/12/29 06:53:55;;;;;;;91.60;43.17;;;-0.10;99.90;;;;;;10287190;28;20247;-83
2021/12/29 06:58:57;;;;;;;94.87;46.80;;;0.00;99.90;;;;;;10293682;28;20245;-82
2021/12/29 07:04:00;;;;;;;83.43;44.87;;;0.00;99.90;;;;;;10271508;28;20296;-83
2021/12/29 07:09:04;;;;;;;84.80;46.13;;;0.10;99.90;;;;;;10291872;28;20238;-83
2021/12/29 07:14:09;;;;;;;95.47;46.50;;;0.10;99.90;;;;;;10305154;28;20292;-82
2021/12/29 07:19:12;;;;;;;96.40;47.17;;;0.10;99.90;;;;;;10292010;28;20269;-82
2021/12/29 07:24:16;;;;;;;98.77;48.33;;;0.10;99.90;;;;;;10288955;28;20266;-82
2021/12/29 07:29:18;;;;;;;101.73;51.90;;;0.10;99.90;;;;;;10295828;28;20315;-82
2021/12/29 07:34:22;;;;;;;102.10;51.10;;;0.20;99.90;;;;;;10315590;28;20233;-82
2021/12/29 07:39:25;;;;;;;104.17;50.10;;;0.20;99.90;;;;;;10285065;28;20291;-82
2021/12/29 07:44:30;;;;;;;84.37;44.83;;;0.30;99.90;;;;;;10309709;28;20658;-82
2021/12/29 07:49:33;;;;;;;87.70;46.77;;;0.30;99.90;;;;;;10308348;28;20242;-82
2021/12/29 07:54:35;;;;;;;96.57;47.90;;;0.40;99.90;;;;;;10326262;28;20272;-82
2021/12/29 07:59:38;;;;;;;90.90;48.83;;;0.30;99.90;;;;;;10312896;28;20250;-82
2021/12/29 08:04:40;;;;;;;94.93;47.10;;;0.30;99.90;;;;;;10285314;28;20265;-82
2021/12/29 08:09:43;;;;;;;86.93;44.23;;;0.40;99.90;;;;;;10255612;28;20269;-82
2021/12/29 08:14:46;;;;;;;99.33;47.63;;;0.40;99.90;;;;;;10286789;28;20876;-82
2021/12/29 08:19:50;;;;;;;98.77;48.60;;;0.40;99.90;;;;;;10298297;28;20246;-82
2021/12/29 08:24:52;;;;;;;96.13;47.70;;;0.50;99.90;;;;;;10310378;28;20271;-82
2021/12/29 08:29:55;;;;;;;95.67;46.17;;;0.50;99.90;;;;;;10293364;28;20251;-82
2021/12/29 08:34:57;;;;;;;92.03;44.20;;;0.60;99.90;;;;;;10312163;28;20681;-82
2021/12/29 08:40:02;;;;;;;87.40;46.00;;;0.60;99.90;;;;;;10302858;28;20279;-83
2021/12/29 08:45:07;;;;;;;94.00;44.80;;;0.60;99.90;;;;;;10267152;28;20976;-82
2021/12/29 08:50:13;;;;;;;88.93;46.80;;;0.70;99.90;;;;;;10305044;28;20693;-82
2021/12/29 08:55:16;;;;;;;84.03;46.27;;;0.80;99.90;;;;;;10315845;28;20647;-82
2021/12/29 09:00:20;;;;;;;83.87;45.63;;;0.80;99.90;;;;;;10327035;28;20304;-83
2021/12/29 09:05:22;;;;;;;91.10;45.60;;;0.80;99.90;;;;;;10287284;28;20270;-83
2021/12/29 09:10:25;;;;;;;80.43;42.50;;;0.90;99.90;;;;;;10283848;28;20240;-82
2021/12/29 09:15:30;;;;;;;85.90;42.63;;;0.90;99.90;;;;;;10287183;28;20295;-82
2021/12/29 09:20:35;;;;;;;86.57;45.07;;;0.90;99.90;;;;;;10276072;28;20225;-83
2021/12/29 09:25:40;;;;;;;81.57;43.17;;;1.00;99.90;;;;;;10310128;28;20300;-83
2021/12/29 09:30:44;;;;;;;88.10;44.43;;;1.00;99.90;;;;;;10294689;28;20265;-82
2021/12/29 09:35:52;;;;;;;73.73;40.23;;;1.10;99.90;;;;;;10287425;28;20239;-82
2021/12/29 09:40:54;;;;;;;83.20;43.63;;;1.20;99.90;;;;;;10286018;28;20286;-83
2021/12/29 09:45:57;;;;;;;84.07;45.00;;;1.20;99.90;;;;;;10294049;28;20659;-83
2021/12/29 09:51:00;;;;;;;83.97;43.80;;;1.30;99.90;;;;;;10282654;28;20716;-82
2021/12/29 09:56:03;;;;;;;81.13;43.97;;;1.30;99.90;;;;;;10282757;28;20297;-82
2021/12/29 10:01:07;;;;;;;93.10;47.17;;;1.30;99.90;;;;;;10286045;28;20289;-82
2021/12/29 10:06:11;;;;;;;90.57;46.27;;;1.20;99.90;;;;;;10268967;28;20255;-82
2021/12/29 10:11:24;;;;;;;99.87;47.53;;;1.20;99.90;;;;;;10286378;28;20567;-82
2021/12/29 10:16:29;;;;;;;85.93;46.47;;;1.30;99.90;;;;;;10275662;28;20261;-82
2021/12/29 10:21:33;;;;;;;92.63;48.70;;;1.40;99.90;;;;;;10276371;28;20235;-82
2021/12/29 10:26:44;;;;;;;89.53;45.83;;;1.40;99.90;;;;;;10292898;28;20261;-82
2021/12/29 10:31:56;;;;;;;80.70;42.80;;;1.50;99.90;;;;;;10292538;28;20252;-82
2021/12/29 10:37:06;;;;;;;90.17;44.40;;;1.50;99.90;;;;;;10275233;28;20246;-82
2021/12/29 10:42:20;;;;;;;82.80;44.57;;;1.50;99.90;;;;;;10291915;28;20244;-82
2021/12/29 10:47:22;;;;;;;87.07;47.40;;;1.60;99.90;;;;;;10274515;28;20318;-83
2021/12/29 10:52:55;;;;;;;99.33;49.53;;;1.60;99.90;;;;;;10274622;28;20248;-82
2021/12/29 10:58:12;;;;;;;97.17;48.23;;;1.70;99.90;;;;;;10248395;28;20248;-82
2021/12/29 11:03:22;;;;;;;90.43;46.27;;;1.80;99.90;;;;;;10291509;28;20756;-82
2021/12/29 11:08:30;;;;;;;98.57;49.13;;;1.70;99.90;;;;;;10273927;28;20256;-82
2021/12/29 11:13:33;;;;;;;107.20;53.87;;;1.80;99.90;;;;;;10300091;28;20287;-82
2021/12/29 11:18:40;;;;;;;117.83;57.50;;;1.80;99.90;;;;;;10271722;28;20248;-83
2021/12/29 11:23:42;;;;;;;95.93;49.37;;;1.90;99.90;;;;;;10272284;28;20248;-82
2021/12/29 11:28:45;;;;;;;95.17;52.43;;;1.90;99.90;;;;;;10289415;28;20316;-82
2021/12/29 11:33:47;;;;;;;104.70;53.83;;;1.90;99.90;;;;;;10248526;29;20244;-82
2021/12/29 11:38:50;;;;;;;118.63;60.80;;;2.10;99.90;;;;;;10244341;28;20201;-82
2021/12/29 11:43:52;;;;;;;128.47;63.53;;;1.90;99.90;;;;;;10285212;28;20659;-81
2021/12/29 11:48:55;;;;;;;119.47;59.47;;;2.00;99.90;;;;;;10289403;28;20256;-82
2021/12/29 11:54:12;;;;;;;147.20;71.43;;;2.10;99.90;;;;;;10291662;28;20738;-81
2021/12/29 11:59:15;;;;;;;130.20;67.53;;;2.10;99.90;;;;;;10288888;28;20306;-81
2021/12/29 12:04:36;;;;;;;130.90;66.73;;;2.10;99.90;;;;;;10308335;28;20298;-81
2021/12/29 12:09:49;;;;;;;126.07;64.40;;;2.20;99.90;;;;;;10273620;28;20238;-81
2021/12/29 12:14:52;;;;;;;114.47;61.53;;;2.20;99.90;;;;;;10301165;28;20261;-81
2021/12/29 12:20:11;;;;;;;113.17;63.60;;;2.30;99.90;;;;;;10286425;28;20228;-82
2021/12/29 12:25:19;;;;;;;143.70;69.90;;;2.30;99.90;;;;;;10285722;28;20321;-82
2021/12/29 12:30:24;;;;;;;142.93;74.90;;;2.30;99.90;;;;;;10283837;28;20267;-82
2021/12/29 12:35:39;;;;;;;135.50;68.67;;;2.30;99.90;;;;;;10275017;28;20254;-82
2021/12/29 12:52:10;;;;;;;136.60;65.37;;;2.40;99.90;;;;;;9756821;29;10002166;-83
2021/12/29 12:57:24;;;;;;;112.80;58.73;;;2.40;99.90;;;;;;10162418;29;20697;-82
2021/12/29 13:02:27;;;;;;;106.33;53.13;;;2.40;99.90;;;;;;10142952;29;20317;-83
2021/12/29 13:07:30;;;;;;;120.33;61.23;;;2.40;99.90;;;;;;10126254;29;20306;-83
2021/12/29 13:12:36;;;;;;;116.80;60.37;;;2.40;99.90;;;;;;10158464;29;20243;-83
2021/12/29 13:17:43;;;;;;;136.23;62.83;;;2.40;99.90;;;;;;10162243;29;20577;-83
2021/12/29 13:22:46;;;;;;;138.63;66.73;;;2.40;99.90;;;;;;10145145;29;20305;-83
2021/12/29 13:28:02;;;;;;;139.77;64.17;;;2.40;99.90;;;;;;10156777;29;20807;-83
2021/12/29 13:33:05;;;;;;;113.13;55.87;;;2.40;99.90;;;;;;10140505;29;20660;-83
2021/12/29 13:38:10;;;;;;;115.73;58.13;;;2.40;99.90;;;;;;10160149;29;20931;-83
2021/12/29 13:43:17;;;;;;;113.90;56.50;;;2.50;99.90;;;;;;10165594;29;20677;-84
2021/12/29 13:48:25;;;;;;;107.87;56.17;;;2.50;99.90;;;;;;10157213;29;20313;-84
2021/12/29 13:53:28;;;;;;;83.80;41.93;;;2.40;99.90;;;;;;10165686;29;20633;-83
2021/12/29 14:51:49;;;;;;;136.63;69.77;;;2.30;99.90;;;;;;10218720;29;20221;-96
2021/12/29 14:56:56;;;;;;;130.30;69.27;;;2.20;99.90;;;;;;10188069;29;20212;-96
2021/12/29 15:02:06;;;;;;;145.97;71.73;;;2.20;99.90;;;;;;10183129;29;20210;-96
2021/12/29 15:07:15;;;;;;;147.63;75.53;;;2.20;99.90;;;;;;10216492;29;20248;-94
2021/12/29 15:12:21;;;;;;;182.03;81.80;;;2.10;99.90;;;;;;10202036;29;20235;-95
2021/12/29 15:17:25;;;;;;;204.27;91.60;;;2.00;99.90;;;;;;10215332;29;20206;-96
2021/12/29 15:22:28;;;;;;;260.73;109.67;;;2.10;99.90;;;;;;10218685;29;20223;-96
2021/12/29 15:27:33;;;;;;;277.70;110.77;;;2.00;99.90;;;;;;10203088;29;20227;-96
2021/12/29 15:32:36;;;;;;;280.37;116.33;;;2.20;99.90;;;;;;10188356;29;20206;-96
2021/12/29 15:37:39;;;;;;;252.10;105.30;;;2.20;99.90;;;;;;10178377;29;20220;-96
2021/12/29 15:42:43;;;;;;;219.87;95.00;;;2.30;99.90;;;;;;10172793;29;20208;-96
2021/12/29 15:47:45;;;;;;;206.03;91.07;;;2.10;99.90;;;;;;10194520;29;20234;-96
2021/12/29 15:52:53;;;;;;;225.00;94.50;;;2.20;99.90;;;;;;10206473;29;20246;-96
2021/12/29 15:57:56;;;;;;;232.53;98.83;;;2.20;99.90;;;;;;10191950;29;20214;-96
2021/12/29 16:03:00;;;;;;;224.13;97.30;;;2.30;99.90;;;;;;10213173;29;20214;-82
2021/12/29 16:08:04;;;;;;;234.73;99.40;;;2.60;99.90;;;;;;10186036;29;20266;-82
2021/12/29 16:13:08;;;;;;;255.47;105.63;;;2.20;99.90;;;;;;10206687;29;20944;-82
2021/12/29 16:18:11;;;;;;;252.17;106.03;;;2.10;99.90;;;;;;10188648;29;20238;-83
2021/12/29 16:23:14;;;;;;;277.37;109.57;;;2.10;99.90;;;;;;10208969;29;20246;-82
2021/12/29 16:28:16;;;;;;;363.00;139.97;;;2.00;99.90;;;;;;10187823;29;20283;-82
2021/12/29 16:33:19;;;;;;;404.70;139.83;;;2.10;99.90;;;;;;10205011;29;20282;-81
2021/12/29 16:38:21;;;;;;;335.33;126.73;;;2.00;99.90;;;;;;10206949;29;20301;-82
2021/12/29 16:43:23;;;;;;;290.60;121.23;;;2.00;99.90;;;;;;10208595;29;20238;-82
2021/12/29 16:48:26;;;;;;;351.07;127.07;;;2.00;99.90;;;;;;10190814;29;20258;-81
2021/12/29 16:53:28;;;;;;;325.57;117.67;;;2.00;99.90;;;;;;10207333;29;20223;-81
2021/12/29 16:58:36;;;;;;;234.60;100.57;;;2.10;99.90;;;;;;10213277;29;20239;-81
2021/12/29 17:03:39;;;;;;;236.63;97.70;;;2.00;99.90;;;;;;10215011;29;20680;-81
2021/12/29 17:08:42;;;;;;;251.80;105.23;;;2.00;99.90;;;;;;10206699;29;20672;-81
2021/12/29 17:13:44;;;;;;;272.57;100.23;;;2.10;99.90;;;;;;10205238;29;20649;-81
2021/12/29 17:18:47;;;;;;;255.57;96.30;;;2.20;99.90;;;;;;10189785;29;20696;-84
2021/12/29 17:23:49;;;;;;;251.80;94.17;;;2.20;99.90;;;;;;10209139;29;20242;-81
2021/12/29 17:28:52;;;;;;;261.37;95.43;;;2.10;99.90;;;;;;10224297;29;20668;-84
2021/12/29 17:33:56;;;;;;;273.53;99.23;;;2.20;99.90;;;;;;10196622;29;20237;-83
2021/12/29 17:38:59;;;;;;;258.87;94.77;;;2.10;99.90;;;;;;10197362;29;20727;-83
2021/12/29 17:44:01;;;;;;;333.53;101.93;;;2.10;99.90;;;;;;10193216;29;20303;-83
2021/12/29 17:49:05;;;;;;;291.83;105.03;;;2.10;99.90;;;;;;10198593;29;20302;-82
2021/12/29 17:54:07;;;;;;;415.27;113.90;;;2.00;99.90;;;;;;10209617;29;20234;-83
2021/12/29 17:59:10;;;;;;;211.37;89.30;;;2.00;99.90;;;;;;10205418;29;20245;-83
2021/12/29 18:04:12;;;;;;;248.53;90.13;;;2.00;99.90;;;;;;10195100;29;20239;-86
2021/12/29 18:09:15;;;;;;;268.43;93.27;;;2.10;99.90;;;;;;9527894;28;9999815;-83
2021/12/29 18:14:19;;;;;;;366.87;102.60;;;2.10;99.90;;;;;;10178559;29;20298;-82
2021/12/29 18:19:23;;;;;;;234.03;89.20;;;2.20;99.90;;;;;;10193989;29;20243;-82
2021/12/29 18:24:25;;;;;;;194.90;83.90;;;2.10;99.90;;;;;;10210074;29;20278;-82
2021/12/29 18:29:29;;;;;;;242.23;86.13;;;2.20;99.90;;;;;;10218302;29;20364;-82
2021/12/29 18:34:32;;;;;;;267.63;86.17;;;2.10;99.90;;;;;;10192794;29;20668;-82
2021/12/29 18:39:34;;;;;;;275.30;85.53;;;2.10;99.90;;;;;;10208736;29;20241;-83
2021/12/29 18:44:37;;;;;;;246.73;81.23;;;2.10;99.90;;;;;;10193308;29;20249;-83
2021/12/29 18:49:40;;;;;;;301.20;81.77;;;2.10;99.90;;;;;;10209203;29;20798;-83
2021/12/29 18:54:45;;;;;;;190.13;71.00;;;2.00;99.90;;;;;;10192076;29;20869;-83
2021/12/29 18:59:47;;;;;;;214.17;80.67;;;2.10;99.90;;;;;;10191726;29;20245;-83
2021/12/29 19:04:50;;;;;;;278.60;96.40;;;2.00;99.90;;;;;;10208344;29;20277;-83
2021/12/29 19:09:53;;;;;;;248.53;91.47;;;2.10;99.90;;;;;;10211754;29;20308;-83
2021/12/29 19:14:55;;;;;;;295.57;92.97;;;2.20;99.90;;;;;;10230481;29;20233;-83
2021/12/29 19:19:58;;;;;;;251.03;91.17;;;2.10;99.90;;;;;;10208785;29;20242;-83
2021/12/29 19:25:00;;;;;;;259.20;94.50;;;2.10;99.90;;;;;;10191425;29;20258;-83
2021/12/29 19:30:05;;;;;;;333.63;103.40;;;2.00;99.90;;;;;;10207536;29;20297;-83
2021/12/29 19:35:09;;;;;;;361.53;111.50;;;2.10;99.90;;;;;;10190569;29;20309;-83
2021/12/29 19:40:14;;;;;;;315.93;110.17;;;2.10;99.90;;;;;;10174660;29;20252;-83
2021/12/29 19:45:19;;;;;;;319.47;112.13;;;2.10;99.90;;;;;;10172915;29;20241;-83
2021/12/29 19:50:26;;;;;;;313.93;104.93;;;2.00;99.90;;;;;;10191525;29;20294;-83
2021/12/29 19:55:31;;;;;;;295.63;103.73;;;2.00;99.90;;;;;;10170821;29;20289;-83
2021/12/29 20:00:36;;;;;;;368.17;117.97;;;2.10;99.90;;;;;;10208438;29;20239;-83
2021/12/29 20:05:40;;;;;;;307.47;112.93;;;2.10;99.90;;;;;;10207313;29;20242;-83
2021/12/29 20:10:50;;;;;;;287.70;102.50;;;2.10;99.90;;;;;;10230157;28;20266;-83
2021/12/29 20:15:52;;;;;;;282.87;96.60;;;2.00;99.90;;;;;;10206963;29;20234;-83
2021/12/29 20:20:55;;;;;;;272.17;99.07;;;2.10;99.90;;;;;;10206599;29;20325;-83
2021/12/29 20:25:58;;;;;;;246.13;97.07;;;2.00;99.90;;;;;;10206432;29;20236;-83
2021/12/29 20:31:00;;;;;;;330.93;102.73;;;2.00;99.90;;;;;;10172956;29;20269;-83
2021/12/29 20:36:03;;;;;;;265.97;90.37;;;2.00;99.90;;;;;;10187612;29;20253;-83
2021/12/29 20:41:06;;;;;;;295.63;100.73;;;2.00;99.90;;;;;;10188309;29;20305;-83
2021/12/29 20:46:09;;;;;;;280.50;102.17;;;2.20;99.90;;;;;;10171408;29;20312;-83
2021/12/29 20:51:11;;;;;;;321.23;110.90;;;2.10;99.90;;;;;;10188015;29;20743;-83
2021/12/29 20:56:14;;;;;;;263.63;99.43;;;2.10;99.90;;;;;;10205322;29;20310;-83
2021/12/29 21:01:16;;;;;;;308.43;103.73;;;2.00;99.90;;;;;;10187314;29;20306;-83
2021/12/29 21:06:19;;;;;;;339.63;102.83;;;2.00;99.90;;;;;;10204450;29;20271;-83
2021/12/29 21:11:23;;;;;;;302.53;93.80;;;2.00;99.90;;;;;;10209515;29;20254;-83
2021/12/29 21:16:25;;;;;;;283.53;93.50;;;2.10;99.90;;;;;;10173947;29;20913;-83
2021/12/29 21:21:30;;;;;;;258.80;85.43;;;2.00;99.90;;;;;;10203776;29;20301;-83
2021/12/29 21:26:33;;;;;;;300.10;86.83;;;2.10;99.90;;;;;;10187572;29;20250;-83
2021/12/29 21:31:36;;;;;;;234.83;67.70;;;2.20;99.90;;;;;;10186460;29;20250;-83
2021/12/29 21:36:39;;;;;;;225.30;60.27;;;2.20;99.90;;;;;;10187220;29;20250;-83
2021/12/29 21:41:41;;;;;;;124.10;51.23;;;2.20;99.90;;;;;;10185437;29;20239;-83
2021/12/29 21:46:44;;;;;;;139.20;50.47;;;2.40;99.90;;;;;;10221537;29;20656;-83
2021/12/29 21:51:46;;;;;;;135.83;50.93;;;2.50;99.90;;;;;;10160974;29;20289;-83
2021/12/29 21:56:49;;;;;;;145.40;51.03;;;2.60;99.90;;;;;;10204562;29;20234;-83
2021/12/29 22:01:51;;;;;;;142.93;50.43;;;2.60;99.90;;;;;;10161680;29;20243;-83
2021/12/29 22:06:54;;;;;;;184.10;56.10;;;2.50;99.90;;;;;;10165722;29;20233;-83
2021/12/29 22:11:56;;;;;;;158.37;48.43;;;2.60;99.90;;;;;;10192697;29;20706;-83
2021/12/29 22:16:59;;;;;;;176.80;49.27;;;2.60;99.90;;;;;;10207436;29;20241;-83
2021/12/29 22:22:02;;;;;;;195.30;53.37;;;2.40;99.90;;;;;;10227462;29;20242;-84
2021/12/29 22:27:04;;;;;;;127.40;45.70;;;2.50;99.90;;;;;;10209930;29;20233;-83
2021/12/29 22:32:07;;;;;;;114.97;41.60;;;2.50;99.90;;;;;;10208844;29;20762;-83
2021/12/29 22:37:13;;;;;;;98.30;41.40;;;2.80;99.90;;;;;;10206076;29;20301;-82
2021/12/29 22:42:15;;;;;;;183.10;45.63;;;2.80;99.90;;;;;;10210180;29;20235;-82
2021/12/29 22:47:19;;;;;;;114.07;41.33;;;2.70;99.90;;;;;;10176319;29;20262;-83
2021/12/29 22:52:22;;;;;;;143.17;42.07;;;2.70;99.90;;;;;;10173573;29;20216;-82
2021/12/29 22:57:25;;;;;;;120.13;36.77;;;2.80;99.90;;;;;;10187821;29;20235;-82
2021/12/29 23:02:28;;;;;;;146.83;38.83;;;3.00;99.90;;;;;;10193798;29;20230;-82
2021/12/29 23:07:31;;;;;;;128.67;37.80;;;2.80;99.90;;;;;;10210057;29;20302;-82
2021/12/29 23:12:34;;;;;;;93.27;33.23;;;2.80;99.90;;;;;;10191414;29;20249;-82
2021/12/29 23:17:36;;;;;;;76.03;32.10;;;2.90;99.90;;;;;;10211587;29;20242;-82
2021/12/29 23:22:48;;;;;;;117.50;36.73;;;2.90;99.90;;;;;;10189795;29;20254;-83
2021/12/29 23:28:13;;;;;;;126.20;35.37;;;2.80;99.90;;;;;;10210986;29;20736;-82
2021/12/29 23:33:23;;;;;;;159.47;38.80;;;2.70;99.90;;;;;;10197245;29;20680;-82
2021/12/29 23:38:26;;;;;;;185.67;43.90;;;2.60;99.90;;;;;;10171948;29;20310;-82
2021/12/29 23:43:31;;;;;;;191.70;49.23;;;2.50;99.90;;;;;;10188534;29;20694;-82
2021/12/29 23:48:36;;;;;;;196.23;47.87;;;2.40;99.90;;;;;;10194960;29;20250;-82
2021/12/29 23:53:39;;;;;;;236.17;51.00;;;2.40;99.90;;;;;;10153801;29;20306;-82
2021/12/29 23:58:42;;;;;;;223.20;47.70;;;2.50;99.90;;;;;;10179667;29;20301;-82
